| time (UTC) | temp C | wind direction | speed KPH | gust KPH | rain 1hr cm | rain 24hr cm | rain mn cm | humidity % | barometer mb |
| 20260505124553 | 13 | 284 | 9.7 | 19.3 | 0.00 | 0.30 | 0.13 | 83 | 1004.8 |
| 20260505123101 | 13 | 267 | 9.7 | 20.9 | 0.00 | 0.30 | 0.13 | 84 | 1004.5 |
| 20260505121554 | 13 | 252 | 6.4 | 14.5 | 0.00 | 0.30 | 0.13 | 84 | 1004.7 |
| 20260505120054 | 13 | 291 | 8.0 | 17.7 | 0.00 | 0.30 | 0.13 | 84 | 1004.8 |
| 20260505114600 | 13 | 257 | 8.0 | 14.5 | 0.00 | 0.30 | 0.13 | 84 | 1004.6 |
| 20260505113055 | 12 | 246 | 6.4 | 14.5 | 0.00 | 0.30 | 0.13 | 84 | 1004.3 |
| 20260505111557 | 13 | 274 | 6.4 | 20.9 | 0.00 | 0.30 | 0.13 | 84 | 1004.2 |
| 20260505101607 | 13 | 273 | 8.0 | 17.7 | 0.00 | 0.30 | 0.13 | 83 | 1003.1 |
| 20260505100104 | 13 | 267 | 3.2 | 16.1 | 0.00 | 0.30 | 0.13 | 83 | 1002.5 |
| 20260505094551 | 13 | 265 | 6.4 | 16.1 | 0.00 | 0.30 | 0.13 | 83 | 1002.5 |
| 20260505093104 | 13 | 254 | 6.4 | 16.1 | 0.00 | 0.30 | 0.13 | 83 | 1002.6 |
| 20260505091556 | 13 | 286 | 8.0 | 16.1 | 0.00 | 0.30 | 0.13 | 83 | 1002.6 |
| 20260505090054 | 13 | 247 | 4.8 | 20.9 | 0.00 | 0.30 | 0.13 | 83 | 1002.4 |
| 20260505084602 | 13 | 281 | 6.4 | 16.1 | 0.00 | 0.30 | 0.13 | 83 | 1002.8 |
| 20260505083105 | 13 | 306 | 9.7 | 17.7 | 0.00 | 0.30 | 0.13 | 83 | 1002.6 |
| 20260505081559 | 13 | 257 | 6.4 | 14.5 | 0.00 | 0.30 | 0.13 | 83 | 1002.2 |
| 20260505080059 | 13 | 281 | 6.4 | 16.1 | 0.00 | 0.30 | 0.13 | 83 | 1002.1 |
| 20260505074552 | 13 | 214 | 4.8 | 12.9 | 0.00 | 0.30 | 0.13 | 84 | 1001.8 |
| 20260505073055 | 13 | 244 | 6.4 | 17.7 | 0.00 | 0.30 | 0.13 | 84 | 1001.8 |
| 20260505071554 | 13 | 154 | 1.6 | 14.5 | 0.00 | 0.30 | 0.13 | 84 | 1001.4 |
| 20260505070058 | 13 | 169 | 1.6 | 9.7 | 0.00 | 0.30 | 0.13 | 84 | 1001.2 |
| 20260505064551 | 13 | 185 | 1.6 | 8.0 | 0.00 | 0.30 | 0.13 | 84 | 1001.0 |
| 20260505063051 | 13 | 187 | 1.6 | 11.3 | 0.03 | 0.30 | 0.13 | 84 | 1001.3 |
| 20260505061552 | 13 | 172 | 3.2 | 6.4 | 0.03 | 0.30 | 0.13 | 84 | 1001.4 |
| 20260505054556 | 13 | 213 | 0.0 | 6.4 | 0.05 | 0.30 | 0.13 | 84 | 1001.5 |
| 20260505053051 | 13 | 194 | 1.6 | 9.7 | 0.05 | 0.28 | 0.10 | 84 | 1001.6 |
| 20260505051553 | 13 | 261 | 3.2 | 14.5 | 0.10 | 0.28 | 0.10 | 84 | 1002.3 |
| 20260505041551 | 14 | 263 | 4.8 | 16.1 | 0.13 | 0.18 | 0.00 | 83 | 1002.5 |
| 20260505040050 | 15 | 281 | 11.3 | 30.6 | 0.13 | 0.18 | 0.00 | 81 | 1002.5 |
| 20260505034552 | 17 | 296 | 20.9 | 38.6 | 0.05 | 0.10 | 0.10 | 76 | 1003.2 |
| 20260505033052 | 18 | 263 | 4.8 | 14.5 | 0.00 | 0.05 | 0.05 | 67 | 1001.7 |
| 20260505031552 | 18 | 190 | 1.6 | 9.7 | 0.00 | 0.05 | 0.05 | 65 | 1001.3 |
| 20260505030055 | 18 | 162 | 3.2 | 12.9 | 0.00 | 0.05 | 0.05 | 64 | 1001.4 |
| 20260505024555 | 18 | 169 | 4.8 | 11.3 | 0.00 | 0.05 | 0.05 | 63 | 1001.5 |
| 20260505023055 | 19 | 186 | 3.2 | 12.9 | 0.00 | 0.05 | 0.05 | 63 | 1001.5 |
| 20260505021554 | 19 | 167 | 4.8 | 14.5 | 0.00 | 0.05 | 0.05 | 62 | 1001.6 |
| 20260505020054 | 19 | 257 | 4.8 | 14.5 | 0.00 | 0.05 | 0.05 | 61 | 1001.5 |
| 20260505014558 | 20 | 275 | 3.2 | 9.7 | 0.00 | 0.05 | 0.05 | 59 | 1001.3 |
| 20260505013053 | 20 | 138 | 1.6 | 12.9 | 0.00 | 0.05 | 0.05 | 57 | 1001.2 |
| 20260505011554 | 20 | 271 | 4.8 | 24.1 | 0.00 | 0.05 | 0.05 | 56 | 1001.2 |
| 20260505010110 | 21 | 279 | 8.0 | 24.1 | 0.00 | 0.05 | 0.05 | 55 | 1001.2 |
| 20260505004549 | 21 | 250 | 11.3 | 29.0 | 0.00 | 0.05 | 0.05 | 53 | 1001.1 |
| 20260505003054 | 21 | 275 | 11.3 | 29.0 | 0.00 | 0.05 | 0.05 | 52 | 1001.0 |
| 20260505001555 | 21 | 196 | 9.7 | 37.0 | 0.00 | 0.05 | 0.05 | 50 | 1000.6 |
| 20260505000051 | 21 | 288 | 11.3 | 27.4 | 0.00 | 0.05 | 0.05 | 53 | 1000.5 |
| 20260504234550 | 18 | 261 | 14.5 | 29.0 | 0.00 | 0.05 | 0.05 | 64 | 1000.4 |
| 20260504233051 | 17 | 313 | 1.6 | 6.4 | 0.00 | 0.05 | 0.05 | 74 | 1000.3 |
| 20260504231548 | 17 | 284 | 1.6 | 9.7 | 0.05 | 0.05 | 0.05 | 74 | 1000.3 |
| 20260504230052 | 18 | 355 | 8.0 | 17.7 | 0.05 | 0.05 | 0.05 | 72 | 1000.5 |
| 20260504224552 | 19 | 259 | 1.6 | 11.3 | 0.05 | 0.05 | 0.05 | 67 | 999.9 |
| 20260504223101 | 22 | 264 | 9.7 | 22.5 | 0.03 | 0.03 | 0.03 | 57 | 1000.3 |
| 20260504221603 | 23 | 252 | 9.7 | 22.5 | 0.00 | 0.00 | 0.00 | 48 | 1000.2 |
| 20260504220052 | 23 | 286 | 1.6 | 27.4 | 0.00 | 0.00 | 0.00 | 49 | 1000.0 |
| 20260504214559 | 23 | 199 | 6.4 | 27.4 | 0.00 | 0.00 | 0.00 | 49 | 1000.3 |
| 20260504213103 | 23 | 187 | 9.7 | 29.0 | 0.00 | 0.00 | 0.00 | 48 | 1000.4 |
| 20260504211551 | 23 | 192 | 8.0 | 29.0 | 0.00 | 0.00 | 0.00 | 49 | 1000.5 |
| 20260504210054 | 23 | 260 | 14.5 | 32.2 | 0.00 | 0.00 | 0.00 | 49 | 1000.8 |
| 20260504204558 | 23 | 256 | 11.3 | 25.7 | 0.00 | 0.00 | 0.00 | 52 | 1001.0 |
| 20260504203053 | 23 | 308 | 9.7 | 24.1 | 0.00 | 0.00 | 0.00 | 50 | 1001.4 |
| 20260504201553 | 22 | 140 | 6.4 | 30.6 | 0.00 | 0.00 | 0.00 | 50 | 1001.5 |
| 20260504200053 | 22 | 267 | 8.0 | 17.7 | 0.00 | 0.00 | 0.00 | 48 | 1001.7 |
| 20260504194556 | 23 | 205 | 4.8 | 20.9 | 0.00 | 0.00 | 0.00 | 45 | 1001.6 |
| 20260504193057 | 23 | 11 | 4.8 | 22.5 | 0.00 | 0.00 | 0.00 | 45 | 1002.0 |
| 20260504191551 | 23 | 153 | 9.7 | 22.5 | 0.00 | 0.00 | 0.00 | 43 | 1002.1 |
| 20260504190050 | 22 | 161 | 6.4 | 17.7 | 0.00 | 0.00 | 0.00 | 43 | 1002.3 |
| 20260504184552 | 22 | 121 | 6.4 | 20.9 | 0.00 | 0.00 | 0.00 | 42 | 1002.4 |
| 20260504183051 | 22 | 319 | 8.0 | 17.7 | 0.00 | 0.00 | 0.00 | 42 | 1002.5 |
| 20260504181551 | 22 | 192 | 4.8 | 20.9 | 0.00 | 0.00 | 0.00 | 44 | 1002.7 |
| 20260504180053 | 22 | 199 | 8.0 | 22.5 | 0.00 | 0.00 | 0.00 | 44 | 1003.0 |
| 20260504174550 | 22 | 146 | 11.3 | 22.5 | 0.00 | 0.00 | 0.00 | 44 | 1003.2 |
| 20260504173050 | 22 | 130 | 4.8 | 17.7 | 0.00 | 0.00 | 0.00 | 45 | 1003.5 |
| 20260504171554 | 21 | 182 | 6.4 | 22.5 | 0.00 | 0.00 | 0.00 | 47 | 1003.6 |
| 20260504150109 | 17 | 203 | 3.2 | 20.9 | 0.00 | 0.00 | 0.00 | 62 | 1005.2 |